sensor_id;sensor_type;location;lat;lon;timestamp;P1;durP1;ratioP1;P2;durP2;ratioP2
51224;SDS011;37298;42.688;23.312;2023-08-17T00:01:56;12.60;;;7.85;;
51224;SDS011;37298;42.688;23.312;2023-08-17T00:04:22;9.85;;;6.75;;
51224;SDS011;37298;42.688;23.312;2023-08-17T00:06:49;9.23;;;5.68;;
51224;SDS011;37298;42.688;23.312;2023-08-17T00:09:15;12.73;;;6.05;;
51224;SDS011;37298;42.688;23.312;2023-08-17T00:11:41;11.50;;;6.70;;
51224;SDS011;37298;42.688;23.312;2023-08-17T00:14:07;9.77;;;5.97;;
51224;SDS011;37298;42.688;23.312;2023-08-17T00:16:33;6.88;;;5.63;;
51224;SDS011;37298;42.688;23.312;2023-08-17T00:19:00;9.60;;;6.53;;
51224;SDS011;37298;42.688;23.312;2023-08-17T00:21:27;9.43;;;6.18;;
51224;SDS011;37298;42.688;23.312;2023-08-17T00:23:53;8.32;;;5.60;;
51224;SDS011;37298;42.688;23.312;2023-08-17T00:26:19;9.35;;;5.70;;
51224;SDS011;37298;42.688;23.312;2023-08-17T00:28:46;7.43;;;5.93;;
51224;SDS011;37298;42.688;23.312;2023-08-17T00:31:12;9.43;;;5.45;;
51224;SDS011;37298;42.688;23.312;2023-08-17T00:33:38;11.50;;;5.55;;
51224;SDS011;37298;42.688;23.312;2023-08-17T00:36:08;12.93;;;5.35;;
51224;SDS011;37298;42.688;23.312;2023-08-17T00:38:34;8.63;;;4.95;;
51224;SDS011;37298;42.688;23.312;2023-08-17T00:41:00;7.93;;;5.13;;
51224;SDS011;37298;42.688;23.312;2023-08-17T00:43:26;11.05;;;5.47;;
51224;SDS011;37298;42.688;23.312;2023-08-17T00:45:54;9.15;;;5.13;;
51224;SDS011;37298;42.688;23.312;2023-08-17T00:48:21;11.52;;;4.90;;
51224;SDS011;37298;42.688;23.312;2023-08-17T00:50:48;11.60;;;4.82;;
51224;SDS011;37298;42.688;23.312;2023-08-17T00:53:15;10.13;;;4.43;;
51224;SDS011;37298;42.688;23.312;2023-08-17T00:55:42;6.63;;;4.05;;
51224;SDS011;37298;42.688;23.312;2023-08-17T00:58:08;9.20;;;4.45;;
51224;SDS011;37298;42.688;23.312;2023-08-17T01:00:34;8.00;;;4.25;;
51224;SDS011;37298;42.688;23.312;2023-08-17T01:03:02;6.55;;;4.10;;
51224;SDS011;37298;42.688;23.312;2023-08-17T01:05:28;11.48;;;4.60;;
51224;SDS011;37298;42.688;23.312;2023-08-17T01:07:56;8.73;;;3.97;;
51224;SDS011;37298;42.688;23.312;2023-08-17T01:10:24;6.00;;;4.30;;
51224;SDS011;37298;42.688;23.312;2023-08-17T01:12:53;7.25;;;4.47;;
51224;SDS011;37298;42.688;23.312;2023-08-17T01:15:24;9.82;;;4.47;;
51224;SDS011;37298;42.688;23.312;2023-08-17T01:17:52;8.80;;;4.32;;
51224;SDS011;37298;42.688;23.312;2023-08-17T01:20:20;5.88;;;4.22;;
51224;SDS011;37298;42.688;23.312;2023-08-17T01:22:48;7.57;;;4.30;;
51224;SDS011;37298;42.688;23.312;2023-08-17T01:25:15;6.75;;;4.10;;
51224;SDS011;37298;42.688;23.312;2023-08-17T01:27:43;9.30;;;3.20;;
51224;SDS011;37298;42.688;23.312;2023-08-17T01:30:10;8.73;;;4.27;;
51224;SDS011;37298;42.688;23.312;2023-08-17T01:32:37;5.85;;;3.28;;
51224;SDS011;37298;42.688;23.312;2023-08-17T01:35:07;12.87;;;4.13;;
51224;SDS011;37298;42.688;23.312;2023-08-17T01:37:36;4.70;;;3.70;;
51224;SDS011;37298;42.688;23.312;2023-08-17T01:40:04;6.43;;;4.05;;
51224;SDS011;37298;42.688;23.312;2023-08-17T01:42:31;6.88;;;4.40;;
51224;SDS011;37298;42.688;23.312;2023-08-17T01:44:58;5.50;;;3.60;;
51224;SDS011;37298;42.688;23.312;2023-08-17T01:47:24;10.40;;;4.60;;
51224;SDS011;37298;42.688;23.312;2023-08-17T01:49:50;9.15;;;4.20;;
51224;SDS011;37298;42.688;23.312;2023-08-17T01:52:16;4.63;;;3.50;;
51224;SDS011;37298;42.688;23.312;2023-08-17T01:54:43;6.90;;;3.47;;
51224;SDS011;37298;42.688;23.312;2023-08-17T01:57:09;9.88;;;4.05;;
51224;SDS011;37298;42.688;23.312;2023-08-17T01:59:36;8.65;;;4.28;;
51224;SDS011;37298;42.688;23.312;2023-08-17T02:02:02;6.05;;;4.20;;
51224;SDS011;37298;42.688;23.312;2023-08-17T02:04:28;7.40;;;4.18;;
51224;SDS011;37298;42.688;23.312;2023-08-17T02:06:54;6.85;;;4.07;;
51224;SDS011;37298;42.688;23.312;2023-08-17T02:09:21;7.03;;;4.50;;
51224;SDS011;37298;42.688;23.312;2023-08-17T02:11:47;5.82;;;4.07;;
51224;SDS011;37298;42.688;23.312;2023-08-17T02:14:13;5.95;;;3.63;;
51224;SDS011;37298;42.688;23.312;2023-08-17T02:16:40;6.57;;;3.80;;
51224;SDS011;37298;42.688;23.312;2023-08-17T02:19:06;11.10;;;4.22;;
51224;SDS011;37298;42.688;23.312;2023-08-17T02:21:32;11.43;;;3.80;;
51224;SDS011;37298;42.688;23.312;2023-08-17T02:24:00;6.07;;;4.13;;
51224;SDS011;37298;42.688;23.312;2023-08-17T02:26:26;9.13;;;3.70;;
51224;SDS011;37298;42.688;23.312;2023-08-17T02:28:53;6.88;;;3.78;;
51224;SDS011;37298;42.688;23.312;2023-08-17T02:31:19;6.15;;;3.50;;
51224;SDS011;37298;42.688;23.312;2023-08-17T02:33:46;10.95;;;4.63;;
51224;SDS011;37298;42.688;23.312;2023-08-17T02:36:12;12.23;;;3.65;;
51224;SDS011;37298;42.688;23.312;2023-08-17T02:38:38;12.32;;;3.83;;
51224;SDS011;37298;42.688;23.312;2023-08-17T02:41:04;10.70;;;4.85;;
51224;SDS011;37298;42.688;23.312;2023-08-17T02:43:30;5.55;;;3.30;;
51224;SDS011;37298;42.688;23.312;2023-08-17T02:45:56;8.88;;;4.30;;
51224;SDS011;37298;42.688;23.312;2023-08-17T02:48:25;13.10;;;3.88;;
51224;SDS011;37298;42.688;23.312;2023-08-17T02:50:52;6.47;;;3.83;;
51224;SDS011;37298;42.688;23.312;2023-08-17T02:53:19;7.32;;;3.50;;
51224;SDS011;37298;42.688;23.312;2023-08-17T02:55:46;11.30;;;3.55;;
51224;SDS011;37298;42.688;23.312;2023-08-17T02:58:12;6.75;;;3.58;;
51224;SDS011;37298;42.688;23.312;2023-08-17T03:00:39;8.98;;;3.45;;
51224;SDS011;37298;42.688;23.312;2023-08-17T03:03:05;5.35;;;3.75;;
51224;SDS011;37298;42.688;23.312;2023-08-17T03:05:31;5.28;;;3.63;;
51224;SDS011;37298;42.688;23.312;2023-08-17T03:07:58;10.10;;;3.85;;
51224;SDS011;37298;42.688;23.312;2023-08-17T03:10:24;7.72;;;3.35;;
51224;SDS011;37298;42.688;23.312;2023-08-17T03:12:50;4.82;;;3.60;;
51224;SDS011;37298;42.688;23.312;2023-08-17T03:15:16;4.18;;;2.97;;
51224;SDS011;37298;42.688;23.312;2023-08-17T03:17:43;7.00;;;3.67;;
51224;SDS011;37298;42.688;23.312;2023-08-17T03:20:09;5.40;;;3.92;;
51224;SDS011;37298;42.688;23.312;2023-08-17T03:22:35;5.43;;;4.15;;
51224;SDS011;37298;42.688;23.312;2023-08-17T03:25:02;6.57;;;3.50;;
51224;SDS011;37298;42.688;23.312;2023-08-17T03:27:30;19.25;;;3.63;;
51224;SDS011;37298;42.688;23.312;2023-08-17T03:29:56;6.47;;;3.83;;
51224;SDS011;37298;42.688;23.312;2023-08-17T03:32:23;10.25;;;3.47;;
51224;SDS011;37298;42.688;23.312;2023-08-17T03:34:49;13.02;;;3.60;;
51224;SDS011;37298;42.688;23.312;2023-08-17T03:37:16;6.05;;;3.58;;
51224;SDS011;37298;42.688;23.312;2023-08-17T03:39:42;10.80;;;3.90;;
51224;SDS011;37298;42.688;23.312;2023-08-17T03:42:09;5.65;;;3.40;;
51224;SDS011;37298;42.688;23.312;2023-08-17T03:44:35;6.50;;;3.30;;
51224;SDS011;37298;42.688;23.312;2023-08-17T03:47:01;5.07;;;3.30;;
51224;SDS011;37298;42.688;23.312;2023-08-17T03:49:27;4.57;;;3.15;;
51224;SDS011;37298;42.688;23.312;2023-08-17T03:51:55;10.15;;;3.60;;
51224;SDS011;37298;42.688;23.312;2023-08-17T03:54:21;6.43;;;3.67;;
51224;SDS011;37298;42.688;23.312;2023-08-17T03:56:48;6.55;;;3.58;;
51224;SDS011;37298;42.688;23.312;2023-08-17T03:59:15;5.35;;;3.33;;
51224;SDS011;37298;42.688;23.312;2023-08-17T04:01:41;5.03;;;3.63;;
51224;SDS011;37298;42.688;23.312;2023-08-17T04:04:07;8.93;;;3.55;;
51224;SDS011;37298;42.688;23.312;2023-08-17T04:06:34;7.57;;;3.03;;
51224;SDS011;37298;42.688;23.312;2023-08-17T04:09:01;5.00;;;3.47;;
51224;SDS011;37298;42.688;23.312;2023-08-17T04:11:28;7.60;;;3.25;;
51224;SDS011;37298;42.688;23.312;2023-08-17T04:13:54;7.10;;;4.07;;
51224;SDS011;37298;42.688;23.312;2023-08-17T04:16:21;5.88;;;3.72;;
51224;SDS011;37298;42.688;23.312;2023-08-17T04:18:47;11.30;;;3.65;;
51224;SDS011;37298;42.688;23.312;2023-08-17T04:21:14;6.80;;;3.30;;
51224;SDS011;37298;42.688;23.312;2023-08-17T04:23:41;7.22;;;3.63;;
51224;SDS011;37298;42.688;23.312;2023-08-17T04:26:07;7.28;;;4.05;;
51224;SDS011;37298;42.688;23.312;2023-08-17T04:28:34;10.55;;;3.72;;
51224;SDS011;37298;42.688;23.312;2023-08-17T04:31:00;6.90;;;3.72;;
51224;SDS011;37298;42.688;23.312;2023-08-17T04:33:32;6.00;;;3.67;;
51224;SDS011;37298;42.688;23.312;2023-08-17T04:35:58;6.18;;;4.53;;
51224;SDS011;37298;42.688;23.312;2023-08-17T04:38:26;7.78;;;4.40;;
51224;SDS011;37298;42.688;23.312;2023-08-17T04:40:52;9.70;;;4.80;;
51224;SDS011;37298;42.688;23.312;2023-08-17T04:43:19;6.88;;;4.07;;
51224;SDS011;37298;42.688;23.312;2023-08-17T04:45:45;8.52;;;4.60;;
51224;SDS011;37298;42.688;23.312;2023-08-17T04:48:14;11.98;;;4.47;;
51224;SDS011;37298;42.688;23.312;2023-08-17T04:50:41;13.30;;;4.78;;
51224;SDS011;37298;42.688;23.312;2023-08-17T04:53:07;9.02;;;4.70;;
51224;SDS011;37298;42.688;23.312;2023-08-17T04:55:34;10.65;;;4.75;;
51224;SDS011;37298;42.688;23.312;2023-08-17T04:58:00;9.23;;;4.57;;
51224;SDS011;37298;42.688;23.312;2023-08-17T05:00:26;10.90;;;4.45;;
51224;SDS011;37298;42.688;23.312;2023-08-17T05:02:54;9.65;;;4.53;;
51224;SDS011;37298;42.688;23.312;2023-08-17T05:05:21;12.32;;;4.68;;
51224;SDS011;37298;42.688;23.312;2023-08-17T05:07:49;8.90;;;4.90;;
51224;SDS011;37298;42.688;23.312;2023-08-17T05:10:15;7.28;;;4.63;;
51224;SDS011;37298;42.688;23.312;2023-08-17T05:12:43;8.02;;;4.45;;
51224;SDS011;37298;42.688;23.312;2023-08-17T05:15:09;10.52;;;4.63;;
51224;SDS011;37298;42.688;23.312;2023-08-17T05:17:35;9.02;;;4.35;;
51224;SDS011;37298;42.688;23.312;2023-08-17T05:20:02;8.20;;;4.55;;
51224;SDS011;37298;42.688;23.312;2023-08-17T05:22:29;13.45;;;6.30;;
51224;SDS011;37298;42.688;23.312;2023-08-17T05:24:56;11.13;;;4.07;;
51224;SDS011;37298;42.688;23.312;2023-08-17T05:27:22;6.50;;;4.03;;
51224;SDS011;37298;42.688;23.312;2023-08-17T05:29:48;9.43;;;4.22;;
51224;SDS011;37298;42.688;23.312;2023-08-17T05:32:15;11.93;;;3.90;;
51224;SDS011;37298;42.688;23.312;2023-08-17T05:34:42;7.35;;;3.72;;
51224;SDS011;37298;42.688;23.312;2023-08-17T05:37:08;8.43;;;3.78;;
51224;SDS011;37298;42.688;23.312;2023-08-17T05:39:34;6.35;;;3.30;;
51224;SDS011;37298;42.688;23.312;2023-08-17T05:42:01;7.47;;;3.58;;
51224;SDS011;37298;42.688;23.312;2023-08-17T05:44:28;5.45;;;3.67;;
51224;SDS011;37298;42.688;23.312;2023-08-17T05:46:54;8.25;;;3.35;;
51224;SDS011;37298;42.688;23.312;2023-08-17T05:49:20;6.35;;;3.65;;
51224;SDS011;37298;42.688;23.312;2023-08-17T05:51:46;7.75;;;3.47;;
51224;SDS011;37298;42.688;23.312;2023-08-17T05:54:12;8.52;;;3.95;;
51224;SDS011;37298;42.688;23.312;2023-08-17T05:56:39;7.63;;;3.53;;
51224;SDS011;37298;42.688;23.312;2023-08-17T05:59:10;6.45;;;4.30;;
51224;SDS011;37298;42.688;23.312;2023-08-17T06:01:36;12.07;;;3.55;;
51224;SDS011;37298;42.688;23.312;2023-08-17T06:04:08;4.13;;;3.10;;
51224;SDS011;37298;42.688;23.312;2023-08-17T06:06:34;5.20;;;3.72;;
51224;SDS011;37298;42.688;23.312;2023-08-17T06:09:01;12.18;;;3.97;;
51224;SDS011;37298;42.688;23.312;2023-08-17T06:11:28;8.02;;;3.78;;
51224;SDS011;37298;42.688;23.312;2023-08-17T06:13:54;6.93;;;4.10;;
51224;SDS011;37298;42.688;23.312;2023-08-17T06:16:21;7.45;;;4.40;;
51224;SDS011;37298;42.688;23.312;2023-08-17T06:18:47;10.45;;;5.20;;
51224;SDS011;37298;42.688;23.312;2023-08-17T06:21:13;6.38;;;4.60;;
51224;SDS011;37298;42.688;23.312;2023-08-17T06:23:39;8.52;;;5.20;;
51224;SDS011;37298;42.688;23.312;2023-08-17T06:26:06;5.85;;;5.00;;
51224;SDS011;37298;42.688;23.312;2023-08-17T06:28:33;8.38;;;5.40;;
51224;SDS011;37298;42.688;23.312;2023-08-17T06:30:59;8.23;;;4.55;;
51224;SDS011;37298;42.688;23.312;2023-08-17T06:33:26;11.38;;;4.80;;
51224;SDS011;37298;42.688;23.312;2023-08-17T06:35:52;11.35;;;5.55;;
51224;SDS011;37298;42.688;23.312;2023-08-17T06:38:18;9.40;;;5.00;;
51224;SDS011;37298;42.688;23.312;2023-08-17T06:40:45;7.55;;;5.20;;
51224;SDS011;37298;42.688;23.312;2023-08-17T06:43:11;5.68;;;4.07;;
51224;SDS011;37298;42.688;23.312;2023-08-17T06:45:38;6.82;;;4.57;;
51224;SDS011;37298;42.688;23.312;2023-08-17T06:48:04;7.35;;;4.10;;
51224;SDS011;37298;42.688;23.312;2023-08-17T06:50:31;14.65;;;4.78;;
51224;SDS011;37298;42.688;23.312;2023-08-17T06:52:57;7.75;;;3.75;;
51224;SDS011;37298;42.688;23.312;2023-08-17T06:55:23;7.15;;;4.72;;
51224;SDS011;37298;42.688;23.312;2023-08-17T06:57:50;14.20;;;6.03;;
51224;SDS011;37298;42.688;23.312;2023-08-17T07:00:17;8.98;;;4.55;;
51224;SDS011;37298;42.688;23.312;2023-08-17T07:05:11;5.10;;;3.65;;
51224;SDS011;37298;42.688;23.312;2023-08-17T07:07:39;16.15;;;3.70;;
51224;SDS011;37298;42.688;23.312;2023-08-17T07:10:05;10.55;;;4.50;;
51224;SDS011;37298;42.688;23.312;2023-08-17T07:12:32;6.25;;;3.53;;
51224;SDS011;37298;42.688;23.312;2023-08-17T07:14:59;11.95;;;4.45;;
51224;SDS011;37298;42.688;23.312;2023-08-17T07:17:25;13.15;;;4.57;;
51224;SDS011;37298;42.688;23.312;2023-08-17T07:19:51;5.45;;;3.42;;
51224;SDS011;37298;42.688;23.312;2023-08-17T07:22:17;7.45;;;3.90;;
51224;SDS011;37298;42.688;23.312;2023-08-17T07:24:44;9.18;;;4.20;;
51224;SDS011;37298;42.688;23.312;2023-08-17T07:27:10;10.98;;;4.32;;
51224;SDS011;37298;42.688;23.312;2023-08-17T07:29:36;4.05;;;3.25;;
51224;SDS011;37298;42.688;23.312;2023-08-17T07:32:03;6.10;;;3.42;;
51224;SDS011;37298;42.688;23.312;2023-08-17T07:34:29;7.65;;;3.60;;
51224;SDS011;37298;42.688;23.312;2023-08-17T07:36:56;8.63;;;3.00;;
51224;SDS011;37298;42.688;23.312;2023-08-17T07:39:22;5.78;;;4.03;;
51224;SDS011;37298;42.688;23.312;2023-08-17T07:41:49;3.95;;;2.88;;
51224;SDS011;37298;42.688;23.312;2023-08-17T07:44:15;6.45;;;3.38;;
51224;SDS011;37298;42.688;23.312;2023-08-17T07:46:42;8.18;;;3.40;;
51224;SDS011;37298;42.688;23.312;2023-08-17T07:49:08;4.00;;;3.53;;
51224;SDS011;37298;42.688;23.312;2023-08-17T07:51:35;4.30;;;3.55;;
51224;SDS011;37298;42.688;23.312;2023-08-17T07:54:01;4.97;;;3.15;;
51224;SDS011;37298;42.688;23.312;2023-08-17T07:56:27;7.70;;;4.03;;
51224;SDS011;37298;42.688;23.312;2023-08-17T07:58:54;9.35;;;4.90;;
51224;SDS011;37298;42.688;23.312;2023-08-17T08:01:20;9.60;;;4.50;;
51224;SDS011;37298;42.688;23.312;2023-08-17T08:03:46;6.07;;;3.28;;
51224;SDS011;37298;42.688;23.312;2023-08-17T08:06:12;5.88;;;3.30;;
51224;SDS011;37298;42.688;23.312;2023-08-17T08:08:39;5.05;;;3.28;;
51224;SDS011;37298;42.688;23.312;2023-08-17T08:11:05;7.05;;;3.17;;
51224;SDS011;37298;42.688;23.312;2023-08-17T08:13:31;5.47;;;3.17;;
51224;SDS011;37298;42.688;23.312;2023-08-17T08:15:58;10.85;;;3.50;;
51224;SDS011;37298;42.688;23.312;2023-08-17T08:18:24;6.88;;;3.63;;
51224;SDS011;37298;42.688;23.312;2023-08-17T08:20:51;3.95;;;2.90;;
51224;SDS011;37298;42.688;23.312;2023-08-17T08:23:36;8.15;;;3.78;;
51224;SDS011;37298;42.688;23.312;2023-08-17T08:26:02;5.82;;;3.47;;
51224;SDS011;37298;42.688;23.312;2023-08-17T08:28:28;7.07;;;3.33;;
51224;SDS011;37298;42.688;23.312;2023-08-17T08:30:54;6.80;;;3.53;;
51224;SDS011;37298;42.688;23.312;2023-08-17T08:33:21;3.58;;;2.90;;
51224;SDS011;37298;42.688;23.312;2023-08-17T08:35:47;5.40;;;2.85;;
51224;SDS011;37298;42.688;23.312;2023-08-17T08:38:14;4.30;;;2.80;;
51224;SDS011;37298;42.688;23.312;2023-08-17T08:40:40;5.75;;;3.08;;
51224;SDS011;37298;42.688;23.312;2023-08-17T08:43:06;6.70;;;3.20;;
51224;SDS011;37298;42.688;23.312;2023-08-17T08:45:35;6.13;;;3.20;;
51224;SDS011;37298;42.688;23.312;2023-08-17T08:48:01;4.05;;;3.00;;
51224;SDS011;37298;42.688;23.312;2023-08-17T08:50:30;5.68;;;3.22;;
51224;SDS011;37298;42.688;23.312;2023-08-17T08:52:58;7.38;;;3.63;;
51224;SDS011;37298;42.688;23.312;2023-08-17T08:55:26;5.22;;;3.28;;
51224;SDS011;37298;42.688;23.312;2023-08-17T08:57:53;4.90;;;3.15;;
51224;SDS011;37298;42.688;23.312;2023-08-17T09:00:20;8.57;;;3.58;;
51224;SDS011;37298;42.688;23.312;2023-08-17T09:02:46;5.68;;;3.20;;
51224;SDS011;37298;42.688;23.312;2023-08-17T09:05:13;6.53;;;3.22;;
51224;SDS011;37298;42.688;23.312;2023-08-17T09:07:40;8.57;;;3.72;;
51224;SDS011;37298;42.688;23.312;2023-08-17T09:10:07;8.75;;;3.22;;
51224;SDS011;37298;42.688;23.312;2023-08-17T09:12:34;5.88;;;3.78;;
51224;SDS011;37298;42.688;23.312;2023-08-17T09:15:00;4.82;;;3.42;;
51224;SDS011;37298;42.688;23.312;2023-08-17T09:17:26;6.43;;;3.00;;
51224;SDS011;37298;42.688;23.312;2023-08-17T09:19:53;4.35;;;3.00;;
51224;SDS011;37298;42.688;23.312;2023-08-17T09:22:22;5.10;;;3.00;;
51224;SDS011;37298;42.688;23.312;2023-08-17T09:24:49;7.47;;;3.03;;
51224;SDS011;37298;42.688;23.312;2023-08-17T09:27:15;6.43;;;3.28;;
51224;SDS011;37298;42.688;23.312;2023-08-17T09:29:42;8.73;;;2.83;;
51224;SDS011;37298;42.688;23.312;2023-08-17T09:32:09;5.47;;;2.83;;
51224;SDS011;37298;42.688;23.312;2023-08-17T09:34:36;3.15;;;2.28;;
51224;SDS011;37298;42.688;23.312;2023-08-17T09:37:15;5.38;;;2.85;;
51224;SDS011;37298;42.688;23.312;2023-08-17T09:39:41;6.18;;;2.92;;
51224;SDS011;37298;42.688;23.312;2023-08-17T09:42:08;5.63;;;2.40;;
51224;SDS011;37298;42.688;23.312;2023-08-17T09:44:35;6.50;;;2.83;;
51224;SDS011;37298;42.688;23.312;2023-08-17T09:47:04;5.00;;;2.50;;
51224;SDS011;37298;42.688;23.312;2023-08-17T09:49:31;3.78;;;2.20;;
51224;SDS011;37298;42.688;23.312;2023-08-17T09:51:59;2.55;;;1.95;;
51224;SDS011;37298;42.688;23.312;2023-08-17T09:54:25;4.47;;;2.70;;
51224;SDS011;37298;42.688;23.312;2023-08-17T09:56:52;3.97;;;2.92;;
51224;SDS011;37298;42.688;23.312;2023-08-17T09:59:20;5.40;;;2.92;;
51224;SDS011;37298;42.688;23.312;2023-08-17T10:01:48;8.07;;;2.90;;
51224;SDS011;37298;42.688;23.312;2023-08-17T10:04:14;3.42;;;2.53;;
51224;SDS011;37298;42.688;23.312;2023-08-17T10:06:41;9.70;;;2.92;;
51224;SDS011;37298;42.688;23.312;2023-08-17T10:09:07;3.35;;;2.15;;
51224;SDS011;37298;42.688;23.312;2023-08-17T10:11:34;2.95;;;2.17;;
51224;SDS011;37298;42.688;23.312;2023-08-17T10:14:05;4.95;;;2.20;;
51224;SDS011;37298;42.688;23.312;2023-08-17T10:16:39;8.35;;;2.30;;
51224;SDS011;37298;42.688;23.312;2023-08-17T10:19:09;3.22;;;2.25;;
51224;SDS011;37298;42.688;23.312;2023-08-17T10:21:39;2.95;;;1.83;;
51224;SDS011;37298;42.688;23.312;2023-08-17T10:24:06;5.20;;;1.90;;
51224;SDS011;37298;42.688;23.312;2023-08-17T10:26:33;4.97;;;2.10;;
51224;SDS011;37298;42.688;23.312;2023-08-17T10:28:59;11.43;;;2.20;;
51224;SDS011;37298;42.688;23.312;2023-08-17T10:33:54;4.10;;;2.53;;
51224;SDS011;37298;42.688;23.312;2023-08-17T10:36:20;6.95;;;2.20;;
51224;SDS011;37298;42.688;23.312;2023-08-17T10:38:47;4.75;;;2.70;;
51224;SDS011;37298;42.688;23.312;2023-08-17T10:41:14;4.18;;;2.85;;
51224;SDS011;37298;42.688;23.312;2023-08-17T10:43:53;7.57;;;3.08;;
51224;SDS011;37298;42.688;23.312;2023-08-17T10:46:20;5.88;;;2.20;;
51224;SDS011;37298;42.688;23.312;2023-08-17T10:48:46;4.07;;;2.63;;
51224;SDS011;37298;42.688;23.312;2023-08-17T10:51:13;3.05;;;1.98;;
51224;SDS011;37298;42.688;23.312;2023-08-17T10:53:40;2.78;;;1.80;;
51224;SDS011;37298;42.688;23.312;2023-08-17T10:56:10;2.30;;;1.70;;
51224;SDS011;37298;42.688;23.312;2023-08-17T10:58:37;2.88;;;2.08;;
51224;SDS011;37298;42.688;23.312;2023-08-17T11:01:03;4.70;;;3.20;;
51224;SDS011;37298;42.688;23.312;2023-08-17T11:03:30;4.78;;;3.60;;
51224;SDS011;37298;42.688;23.312;2023-08-17T11:05:56;7.28;;;2.60;;
51224;SDS011;37298;42.688;23.312;2023-08-17T11:08:27;3.53;;;1.95;;
51224;SDS011;37298;42.688;23.312;2023-08-17T11:11:01;8.27;;;2.60;;
51224;SDS011;37298;42.688;23.312;2023-08-17T11:13:29;4.53;;;2.35;;
51224;SDS011;37298;42.688;23.312;2023-08-17T11:15:59;6.38;;;1.85;;
51224;SDS011;37298;42.688;23.312;2023-08-17T11:18:28;4.78;;;2.22;;
51224;SDS011;37298;42.688;23.312;2023-08-17T11:20:55;4.65;;;1.90;;
51224;SDS011;37298;42.688;23.312;2023-08-17T11:23:22;7.43;;;2.20;;
51224;SDS011;37298;42.688;23.312;2023-08-17T11:25:49;4.70;;;2.03;;
51224;SDS011;37298;42.688;23.312;2023-08-17T11:28:16;4.68;;;2.83;;
51224;SDS011;37298;42.688;23.312;2023-08-17T11:30:43;4.40;;;2.30;;
51224;SDS011;37298;42.688;23.312;2023-08-17T11:33:09;3.50;;;2.50;;
51224;SDS011;37298;42.688;23.312;2023-08-17T11:35:35;4.32;;;2.05;;
51224;SDS011;37298;42.688;23.312;2023-08-17T11:38:02;3.55;;;2.20;;
51224;SDS011;37298;42.688;23.312;2023-08-17T11:40:28;2.88;;;1.95;;
51224;SDS011;37298;42.688;23.312;2023-08-17T11:42:55;8.07;;;1.98;;
51224;SDS011;37298;42.688;23.312;2023-08-17T11:45:21;3.90;;;2.17;;
51224;SDS011;37298;42.688;23.312;2023-08-17T11:47:49;5.05;;;2.05;;
51224;SDS011;37298;42.688;23.312;2023-08-17T11:50:15;3.83;;;1.83;;
51224;SDS011;37298;42.688;23.312;2023-08-17T11:52:42;3.72;;;2.20;;
51224;SDS011;37298;42.688;23.312;2023-08-17T11:55:08;4.65;;;2.03;;
51224;SDS011;37298;42.688;23.312;2023-08-17T11:57:35;5.82;;;2.05;;
51224;SDS011;37298;42.688;23.312;2023-08-17T12:00:02;4.00;;;2.35;;
51224;SDS011;37298;42.688;23.312;2023-08-17T12:02:31;4.18;;;2.10;;
51224;SDS011;37298;42.688;23.312;2023-08-17T12:05:02;3.95;;;2.28;;
51224;SDS011;37298;42.688;23.312;2023-08-17T12:07:28;4.35;;;2.40;;
51224;SDS011;37298;42.688;23.312;2023-08-17T12:09:55;4.25;;;2.28;;
51224;SDS011;37298;42.688;23.312;2023-08-17T12:12:21;8.95;;;2.40;;
51224;SDS011;37298;42.688;23.312;2023-08-17T12:14:48;4.95;;;2.70;;
51224;SDS011;37298;42.688;23.312;2023-08-17T12:17:15;5.32;;;2.10;;
51224;SDS011;37298;42.688;23.312;2023-08-17T12:19:42;6.25;;;2.28;;
51224;SDS011;37298;42.688;23.312;2023-08-17T12:22:09;5.15;;;2.50;;
51224;SDS011;37298;42.688;23.312;2023-08-17T12:24:35;5.13;;;2.53;;
51224;SDS011;37298;42.688;23.312;2023-08-17T12:27:03;5.05;;;2.65;;
51224;SDS011;37298;42.688;23.312;2023-08-17T12:29:29;5.00;;;2.58;;
51224;SDS011;37298;42.688;23.312;2023-08-17T12:31:56;4.22;;;3.03;;
51224;SDS011;37298;42.688;23.312;2023-08-17T12:34:23;7.60;;;3.20;;
51224;SDS011;37298;42.688;23.312;2023-08-17T12:36:49;7.13;;;3.10;;
51224;SDS011;37298;42.688;23.312;2023-08-17T12:39:15;4.38;;;2.78;;
51224;SDS011;37298;42.688;23.312;2023-08-17T12:41:42;6.40;;;3.30;;
51224;SDS011;37298;42.688;23.312;2023-08-17T12:44:08;6.10;;;3.08;;
51224;SDS011;37298;42.688;23.312;2023-08-17T12:46:34;6.55;;;3.28;;
51224;SDS011;37298;42.688;23.312;2023-08-17T12:49:01;6.18;;;3.72;;
51224;SDS011;37298;42.688;23.312;2023-08-17T12:51:27;6.22;;;3.40;;
51224;SDS011;37298;42.688;23.312;2023-08-17T12:53:54;5.63;;;3.47;;
51224;SDS011;37298;42.688;23.312;2023-08-17T12:56:20;8.13;;;3.70;;
51224;SDS011;37298;42.688;23.312;2023-08-17T12:58:49;7.75;;;3.72;;
51224;SDS011;37298;42.688;23.312;2023-08-17T13:01:15;7.75;;;3.50;;
51224;SDS011;37298;42.688;23.312;2023-08-17T13:03:41;5.00;;;4.05;;
51224;SDS011;37298;42.688;23.312;2023-08-17T13:06:07;5.90;;;3.28;;
51224;SDS011;37298;42.688;23.312;2023-08-17T13:08:34;5.47;;;3.55;;
51224;SDS011;37298;42.688;23.312;2023-08-17T13:11:01;6.25;;;3.05;;
51224;SDS011;37298;42.688;23.312;2023-08-17T13:13:27;6.40;;;3.75;;
51224;SDS011;37298;42.688;23.312;2023-08-17T13:15:53;5.80;;;3.67;;
51224;SDS011;37298;42.688;23.312;2023-08-17T13:18:20;4.00;;;3.25;;
51224;SDS011;37298;42.688;23.312;2023-08-17T13:20:46;5.40;;;3.28;;
51224;SDS011;37298;42.688;23.312;2023-08-17T13:23:12;7.82;;;3.78;;
51224;SDS011;37298;42.688;23.312;2023-08-17T13:25:39;6.40;;;3.03;;
51224;SDS011;37298;42.688;23.312;2023-08-17T13:28:06;4.57;;;3.20;;
51224;SDS011;37298;42.688;23.312;2023-08-17T13:30:32;5.35;;;3.40;;
51224;SDS011;37298;42.688;23.312;2023-08-17T13:33:00;5.88;;;3.10;;
51224;SDS011;37298;42.688;23.312;2023-08-17T13:35:29;8.60;;;4.00;;
51224;SDS011;37298;42.688;23.312;2023-08-17T13:37:56;8.50;;;3.38;;
51224;SDS011;37298;42.688;23.312;2023-08-17T13:40:23;4.80;;;3.63;;
51224;SDS011;37298;42.688;23.312;2023-08-17T13:45:38;7.20;;;3.25;;
51224;SDS011;37298;42.688;23.312;2023-08-17T13:48:05;10.80;;;4.05;;
51224;SDS011;37298;42.688;23.312;2023-08-17T13:50:31;4.75;;;3.55;;
51224;SDS011;37298;42.688;23.312;2023-08-17T13:52:58;6.47;;;3.55;;
51224;SDS011;37298;42.688;23.312;2023-08-17T13:55:25;7.15;;;3.20;;
51224;SDS011;37298;42.688;23.312;2023-08-17T13:57:52;4.22;;;3.30;;
51224;SDS011;37298;42.688;23.312;2023-08-17T14:00:20;4.45;;;3.38;;
51224;SDS011;37298;42.688;23.312;2023-08-17T14:02:48;7.18;;;4.00;;
51224;SDS011;37298;42.688;23.312;2023-08-17T14:05:14;4.40;;;3.47;;
51224;SDS011;37298;42.688;23.312;2023-08-17T14:07:41;4.07;;;3.22;;
51224;SDS011;37298;42.688;23.312;2023-08-17T14:10:07;4.80;;;3.45;;
51224;SDS011;37298;42.688;23.312;2023-08-17T14:12:34;5.03;;;3.55;;
51224;SDS011;37298;42.688;23.312;2023-08-17T14:15:00;6.05;;;3.85;;
51224;SDS011;37298;42.688;23.312;2023-08-17T14:17:26;6.85;;;4.20;;
51224;SDS011;37298;42.688;23.312;2023-08-17T14:19:53;5.28;;;3.85;;
51224;SDS011;37298;42.688;23.312;2023-08-17T14:22:20;6.60;;;3.50;;
51224;SDS011;37298;42.688;23.312;2023-08-17T14:24:46;8.98;;;3.08;;
51224;SDS011;37298;42.688;23.312;2023-08-17T14:27:12;5.50;;;3.15;;
51224;SDS011;37298;42.688;23.312;2023-08-17T14:29:38;4.10;;;3.00;;
51224;SDS011;37298;42.688;23.312;2023-08-17T14:32:07;9.23;;;3.25;;
51224;SDS011;37298;42.688;23.312;2023-08-17T14:34:33;5.50;;;3.50;;
51224;SDS011;37298;42.688;23.312;2023-08-17T14:37:00;7.53;;;3.50;;
51224;SDS011;37298;42.688;23.312;2023-08-17T14:39:26;6.22;;;3.38;;